sensor_id;sensor_type;location;lat;lon;timestamp;pressure;altitude;pressure_sealevel;temperature;humidity
60345;BME280;46188;52.324;8.032;2022-11-09T00:01:17;99478.97;;;14.03;88.76
60345;BME280;46188;52.324;8.032;2022-11-09T00:03:43;99469.25;;;14.05;88.76
60345;BME280;46188;52.324;8.032;2022-11-09T00:06:09;99470.16;;;14.02;88.95
60345;BME280;46188;52.324;8.032;2022-11-09T00:08:38;99477.31;;;13.99;89.26
60345;BME280;46188;52.324;8.032;2022-11-09T00:11:06;99473.53;;;14.11;88.65
60345;BME280;46188;52.324;8.032;2022-11-09T00:13:39;99477.94;;;14.12;88.32
60345;BME280;46188;52.324;8.032;2022-11-09T00:16:06;99465.53;;;14.14;88.22
60345;BME280;46188;52.324;8.032;2022-11-09T00:18:33;99471.72;;;14.13;88.37
60345;BME280;46188;52.324;8.032;2022-11-09T00:21:11;99470.78;;;14.17;88.07
60345;BME280;46188;52.324;8.032;2022-11-09T00:23:36;99467.41;;;14.09;88.54
60345;BME280;46188;52.324;8.032;2022-11-09T00:26:03;99463.81;;;14.11;88.45
60345;BME280;46188;52.324;8.032;2022-11-09T00:28:30;99471.75;;;14.11;88.20
60345;BME280;46188;52.324;8.032;2022-11-09T00:31:07;99466.41;;;14.13;88.22
60345;BME280;46188;52.324;8.032;2022-11-09T00:33:34;99465.59;;;14.11;88.28
60345;BME280;46188;52.324;8.032;2022-11-09T00:36:04;99461.16;;;14.11;88.24
60345;BME280;46188;52.324;8.032;2022-11-09T00:38:33;99470.00;;;14.12;88.25
60345;BME280;46188;52.324;8.032;2022-11-09T00:41:00;99468.22;;;14.12;88.19
60345;BME280;46188;52.324;8.032;2022-11-09T00:43:26;99462.03;;;14.13;88.13
60345;BME280;46188;52.324;8.032;2022-11-09T00:45:51;99448.78;;;14.13;88.11
60345;BME280;46188;52.324;8.032;2022-11-09T00:48:17;99457.53;;;14.17;87.98
60345;BME280;46188;52.324;8.032;2022-11-09T00:50:48;99467.34;;;14.12;88.23
60345;BME280;46188;52.324;8.032;2022-11-09T00:53:13;99456.84;;;14.07;88.79
60345;BME280;46188;52.324;8.032;2022-11-09T00:55:39;99459.25;;;14.18;88.01
60345;BME280;46188;52.324;8.032;2022-11-09T00:58:04;99455.84;;;14.11;88.31
60345;BME280;46188;52.324;8.032;2022-11-09T01:00:29;99455.84;;;14.11;88.17
60345;BME280;46188;52.324;8.032;2022-11-09T01:02:55;99456.75;;;14.12;88.26
60345;BME280;46188;52.324;8.032;2022-11-09T01:05:20;99457.56;;;14.15;88.09
60345;BME280;46188;52.324;8.032;2022-11-09T01:07:45;99455.69;;;14.20;87.52
60345;BME280;46188;52.324;8.032;2022-11-09T01:10:11;99463.59;;;14.22;87.50
60345;BME280;46188;52.324;8.032;2022-11-09T01:12:36;99461.13;;;14.13;87.87
60345;BME280;46188;52.324;8.032;2022-11-09T01:15:02;99462.03;;;14.12;87.92
60345;BME280;46188;52.324;8.032;2022-11-09T01:17:27;99450.56;;;14.11;87.89
60345;BME280;46188;52.324;8.032;2022-11-09T01:19:53;99451.44;;;14.12;88.00
60345;BME280;46188;52.324;8.032;2022-11-09T01:22:18;99447.94;;;14.10;87.85
60345;BME280;46188;52.324;8.032;2022-11-09T01:24:44;99446.16;;;14.12;87.92
60345;BME280;46188;52.324;8.032;2022-11-09T01:27:10;99447.88;;;14.13;87.79
60345;BME280;46188;52.324;8.032;2022-11-09T01:29:35;99456.81;;;14.09;87.92
60345;BME280;46188;52.324;8.032;2022-11-09T01:32:01;99457.66;;;14.09;88.05
60345;BME280;46188;52.324;8.032;2022-11-09T01:34:27;99457.66;;;14.09;88.25
60345;BME280;46188;52.324;8.032;2022-11-09T01:36:53;99456.88;;;14.04;88.19
60345;BME280;46188;52.324;8.032;2022-11-09T01:39:19;99453.38;;;14.03;88.32
60345;BME280;46188;52.324;8.032;2022-11-09T01:41:46;99451.56;;;14.06;88.37
60345;BME280;46188;52.324;8.032;2022-11-09T01:44:18;99448.94;;;14.04;88.51
60345;BME280;46188;52.324;8.032;2022-11-09T01:46:53;99457.69;;;14.08;88.14
60345;BME280;46188;52.324;8.032;2022-11-09T01:52:11;99450.75;;;14.02;88.45
60345;BME280;46188;52.324;8.032;2022-11-09T01:54:41;99454.38;;;13.96;88.60
60345;BME280;46188;52.324;8.032;2022-11-09T01:57:12;99448.25;;;13.93;89.10
60345;BME280;46188;52.324;8.032;2022-11-09T01:59:49;99452.56;;;13.98;88.97
60345;BME280;46188;52.324;8.032;2022-11-09T02:02:16;99457.94;;;13.95;89.01
60345;BME280;46188;52.324;8.032;2022-11-09T02:04:54;99462.41;;;13.92;89.02
60345;BME280;46188;52.324;8.032;2022-11-09T02:07:20;99451.91;;;13.87;89.59
60345;BME280;46188;52.324;8.032;2022-11-09T02:12:18;99452.81;;;13.86;89.93
60345;BME280;46188;52.324;8.032;2022-11-09T02:14:47;99458.13;;;13.84;89.88
60345;BME280;46188;52.324;8.032;2022-11-09T02:17:15;99454.59;;;13.86;89.89
60345;BME280;46188;52.324;8.032;2022-11-09T02:19:40;99443.13;;;13.83;90.16
60345;BME280;46188;52.324;8.032;2022-11-09T02:22:06;99448.47;;;13.82;90.07
60345;BME280;46188;52.324;8.032;2022-11-09T02:24:32;99445.84;;;13.82;90.21
60345;BME280;46188;52.324;8.032;2022-11-09T02:26:57;99442.44;;;13.74;90.48
60345;BME280;46188;52.324;8.032;2022-11-09T02:29:43;99446.81;;;13.75;90.66
60345;BME280;46188;52.324;8.032;2022-11-09T02:32:16;99448.72;;;13.68;91.44
60345;BME280;46188;52.324;8.032;2022-11-09T02:34:43;99452.31;;;13.65;91.33
60345;BME280;46188;52.324;8.032;2022-11-09T02:37:09;99451.41;;;13.65;91.45
60345;BME280;46188;52.324;8.032;2022-11-09T02:39:34;99448.69;;;13.70;91.57
60345;BME280;46188;52.324;8.032;2022-11-09T02:42:13;99448.72;;;13.68;91.44
60345;BME280;46188;52.324;8.032;2022-11-09T02:44:44;99435.50;;;13.66;91.58
60345;BME280;46188;52.324;8.032;2022-11-09T02:47:11;99445.31;;;13.61;91.82
60345;BME280;46188;52.324;8.032;2022-11-09T02:49:37;99438.28;;;13.60;92.08
60345;BME280;46188;52.324;8.032;2022-11-09T02:52:02;99427.69;;;13.60;91.93
60345;BME280;46188;52.324;8.032;2022-11-09T02:54:28;99432.03;;;13.63;92.10
60345;BME280;46188;52.324;8.032;2022-11-09T02:56:54;99435.53;;;13.65;92.04
60345;BME280;46188;52.324;8.032;2022-11-09T02:59:19;99434.66;;;13.64;91.79
60345;BME280;46188;52.324;8.032;2022-11-09T03:01:44;99433.00;;;13.60;91.71
60345;BME280;46188;52.324;8.032;2022-11-09T03:04:10;99433.81;;;13.62;91.61
60345;BME280;46188;52.324;8.032;2022-11-09T03:06:35;99437.28;;;13.66;91.55
60345;BME280;46188;52.324;8.032;2022-11-09T03:09:06;99436.50;;;13.61;91.77
60345;BME280;46188;52.324;8.032;2022-11-09T03:11:32;99438.31;;;13.59;91.83
60345;BME280;46188;52.324;8.032;2022-11-09T03:13:58;99434.00;;;13.52;92.36
60345;BME280;46188;52.324;8.032;2022-11-09T03:16:24;99442.78;;;13.54;92.63
60345;BME280;46188;52.324;8.032;2022-11-09T03:18:50;99440.97;;;13.59;92.17
60345;BME280;46188;52.324;8.032;2022-11-09T03:21:16;99443.72;;;13.53;92.54
60345;BME280;46188;52.324;8.032;2022-11-09T03:23:41;99443.69;;;13.54;92.38
60345;BME280;46188;52.324;8.032;2022-11-09T03:26:07;99450.94;;;13.43;92.77
60345;BME280;46188;52.324;8.032;2022-11-09T03:28:32;99444.66;;;13.48;92.53
60345;BME280;46188;52.324;8.032;2022-11-09T03:30:57;99443.84;;;13.43;92.56
60345;BME280;46188;52.324;8.032;2022-11-09T03:33:23;99446.53;;;13.40;92.83
60345;BME280;46188;52.324;8.032;2022-11-09T03:35:48;99447.44;;;13.41;92.76
60345;BME280;46188;52.324;8.032;2022-11-09T03:38:13;99445.81;;;13.32;93.71
60345;BME280;46188;52.324;8.032;2022-11-09T03:40:39;99446.66;;;13.36;93.40
60345;BME280;46188;52.324;8.032;2022-11-09T03:43:04;99450.22;;;13.30;93.48
60345;BME280;46188;52.324;8.032;2022-11-09T03:45:30;99450.38;;;13.22;94.35
60345;BME280;46188;52.324;8.032;2022-11-09T03:47:55;99457.31;;;13.29;94.31
60345;BME280;46188;52.324;8.032;2022-11-09T03:50:24;99455.50;;;13.30;93.94
60345;BME280;46188;52.324;8.032;2022-11-09T03:52:50;99464.31;;;13.34;93.80
60345;BME280;46188;52.324;8.032;2022-11-09T03:55:15;99468.69;;;13.36;93.78
60345;BME280;46188;52.324;8.032;2022-11-09T03:57:43;99488.00;;;13.43;93.46
60345;BME280;46188;52.324;8.032;2022-11-09T04:00:12;99487.00;;;13.48;93.13
60345;BME280;46188;52.324;8.032;2022-11-09T04:02:38;99484.28;;;13.53;93.12
60345;BME280;46188;52.324;8.032;2022-11-09T04:05:04;99480.66;;;13.60;92.36
60345;BME280;46188;52.324;8.032;2022-11-09T04:07:30;99482.47;;;13.55;92.75
60345;BME280;46188;52.324;8.032;2022-11-09T04:09:55;99478.97;;;13.55;92.85
60345;BME280;46188;52.324;8.032;2022-11-09T04:12:20;99484.25;;;13.56;92.48
60345;BME280;46188;52.324;8.032;2022-11-09T04:14:46;99481.78;;;13.45;93.08
60345;BME280;46188;52.324;8.032;2022-11-09T04:17:11;99488.81;;;13.46;93.13
60345;BME280;46188;52.324;8.032;2022-11-09T04:19:36;99478.28;;;13.42;93.25
60345;BME280;46188;52.324;8.032;2022-11-09T04:22:02;99484.56;;;13.38;93.36
60345;BME280;46188;52.324;8.032;2022-11-09T04:24:27;99471.34;;;13.35;93.59
60345;BME280;46188;52.324;8.032;2022-11-09T04:26:52;99467.75;;;13.39;93.30
60345;BME280;46188;52.324;8.032;2022-11-09T04:29:18;99466.09;;;13.33;93.69
60345;BME280;46188;52.324;8.032;2022-11-09T04:31:43;99465.22;;;13.33;93.54
60345;BME280;46188;52.324;8.032;2022-11-09T04:34:09;99467.00;;;13.31;93.74
60345;BME280;46188;52.324;8.032;2022-11-09T04:36:34;99475.03;;;13.24;94.01
60345;BME280;46188;52.324;8.032;2022-11-09T04:38:59;99472.25;;;13.34;93.46
60345;BME280;46188;52.324;8.032;2022-11-09T04:41:26;99468.69;;;13.36;93.30
60345;BME280;46188;52.324;8.032;2022-11-09T04:43:51;99468.75;;;13.33;93.12
60345;BME280;46188;52.324;8.032;2022-11-09T04:46:17;99464.34;;;13.31;93.23
60345;BME280;46188;52.324;8.032;2022-11-09T04:48:42;99463.50;;;13.27;93.18
60345;BME280;46188;52.324;8.032;2022-11-09T04:51:09;99472.38;;;13.24;93.50
60345;BME280;46188;52.324;8.032;2022-11-09T04:53:35;99481.19;;;13.25;93.51
60345;BME280;46188;52.324;8.032;2022-11-09T04:56:01;99477.66;;;13.26;93.08
60345;BME280;46188;52.324;8.032;2022-11-09T04:58:27;99481.22;;;13.23;93.19
60345;BME280;46188;52.324;8.032;2022-11-09T05:00:53;99481.25;;;13.20;93.16
60345;BME280;46188;52.324;8.032;2022-11-09T05:03:18;99481.25;;;13.20;92.82
60345;BME280;46188;52.324;8.032;2022-11-09T05:05:44;99483.91;;;13.19;92.75
60345;BME280;46188;52.324;8.032;2022-11-09T05:08:09;99481.28;;;13.19;92.60
60345;BME280;46188;52.324;8.032;2022-11-09T05:10:35;99483.91;;;13.19;92.38
60345;BME280;46188;52.324;8.032;2022-11-09T05:13:03;99483.94;;;13.17;91.84
60345;BME280;46188;52.324;8.032;2022-11-09T05:15:29;99483.84;;;13.25;90.87
60345;BME280;46188;52.324;8.032;2022-11-09T05:17:55;99494.50;;;13.19;90.86
60345;BME280;46188;52.324;8.032;2022-11-09T05:20:21;99492.66;;;13.24;90.19
60345;BME280;46188;52.324;8.032;2022-11-09T05:22:47;99487.34;;;13.25;89.75
60345;BME280;46188;52.324;8.032;2022-11-09T05:25:31;99497.88;;;13.30;89.08
60345;BME280;46188;52.324;8.032;2022-11-09T05:27:56;99497.84;;;13.32;89.04
60345;BME280;46188;52.324;8.032;2022-11-09T05:30:22;99498.84;;;13.24;89.16
60345;BME280;46188;52.324;8.032;2022-11-09T05:32:47;99492.66;;;13.24;89.34
60345;BME280;46188;52.324;8.032;2022-11-09T05:35:13;99492.66;;;13.24;89.51
60345;BME280;46188;52.324;8.032;2022-11-09T05:37:38;99494.47;;;13.20;89.84
60345;BME280;46188;52.324;8.032;2022-11-09T05:40:05;99507.75;;;13.19;90.07
60345;BME280;46188;52.324;8.032;2022-11-09T05:42:31;99506.91;;;13.17;89.93
60345;BME280;46188;52.324;8.032;2022-11-09T05:44:56;99494.59;;;13.14;89.99
60345;BME280;46188;52.324;8.032;2022-11-09T05:47:21;99510.38;;;13.19;89.67
60345;BME280;46188;52.324;8.032;2022-11-09T05:49:47;99506.84;;;13.20;89.60
60345;BME280;46188;52.324;8.032;2022-11-09T05:52:12;99516.56;;;13.19;89.52
60345;BME280;46188;52.324;8.032;2022-11-09T05:54:37;99518.34;;;13.17;89.43
60345;BME280;46188;52.324;8.032;2022-11-09T05:57:03;99525.34;;;13.21;89.57
60345;BME280;46188;52.324;8.032;2022-11-09T05:59:28;99519.09;;;13.25;89.22
60345;BME280;46188;52.324;8.032;2022-11-09T06:01:54;99524.38;;;13.27;88.96
60345;BME280;46188;52.324;8.032;2022-11-09T06:04:19;99520.81;;;13.29;88.85
60345;BME280;46188;52.324;8.032;2022-11-09T06:06:45;99523.50;;;13.28;89.28
60345;BME280;46188;52.324;8.032;2022-11-09T06:09:10;99531.38;;;13.31;89.22
60345;BME280;46188;52.324;8.032;2022-11-09T06:11:35;99519.03;;;13.33;89.13
60345;BME280;46188;52.324;8.032;2022-11-09T06:14:01;99536.66;;;13.36;89.30
60345;BME280;46188;52.324;8.032;2022-11-09T06:16:26;99532.25;;;13.33;89.62
60345;BME280;46188;52.324;8.032;2022-11-09T06:18:52;99528.72;;;13.36;89.18
60345;BME280;46188;52.324;8.032;2022-11-09T06:21:17;99531.34;;;13.36;89.39
60345;BME280;46188;52.324;8.032;2022-11-09T17:27:38;99926.72;;;11.48;88.36
60345;BME280;46188;52.324;8.032;2022-11-09T17:30:05;99932.81;;;11.67;88.02
60345;BME280;46188;52.324;8.032;2022-11-09T17:32:31;99925.75;;;11.78;87.55
60345;BME280;46188;52.324;8.032;2022-11-09T17:34:56;99927.50;;;11.85;86.76
60345;BME280;46188;52.324;8.032;2022-11-09T17:37:22;99938.06;;;11.91;86.26
60345;BME280;46188;52.324;8.032;2022-11-09T17:39:48;99937.19;;;11.88;86.35
60345;BME280;46188;52.324;8.032;2022-11-09T17:42:13;99941.63;;;11.93;85.92
60345;BME280;46188;52.324;8.032;2022-11-09T17:44:38;99947.72;;;11.91;86.25
60345;BME280;46188;52.324;8.032;2022-11-09T17:47:04;99942.44;;;11.91;86.28
60345;BME280;46188;52.324;8.032;2022-11-09T17:49:30;99949.50;;;11.98;85.72
60345;BME280;46188;52.324;8.032;2022-11-09T17:51:55;99946.84;;;12.01;85.61
60345;BME280;46188;52.324;8.032;2022-11-09T17:54:22;99953.91;;;11.97;85.88
60345;BME280;46188;52.324;8.032;2022-11-09T17:56:48;99945.13;;;12.00;85.28
60345;BME280;46188;52.324;8.032;2022-11-09T17:59:13;99955.69;;;11.92;86.13
60345;BME280;46188;52.324;8.032;2022-11-09T18:01:39;99972.41;;;11.91;86.13
60345;BME280;46188;52.324;8.032;2022-11-09T18:04:05;99956.56;;;11.91;86.17
60345;BME280;46188;52.324;8.032;2022-11-09T18:06:31;99960.06;;;11.89;86.25
60345;BME280;46188;52.324;8.032;2022-11-09T18:08:56;99976.78;;;11.88;86.18
60345;BME280;46188;52.324;8.032;2022-11-09T18:11:22;99973.28;;;11.84;86.69
60345;BME280;46188;52.324;8.032;2022-11-09T18:13:47;99979.47;;;11.80;87.28
60345;BME280;46188;52.324;8.032;2022-11-09T18:16:16;99980.34;;;11.80;87.43
60345;BME280;46188;52.324;8.032;2022-11-09T18:18:42;99985.63;;;11.79;87.42
60345;BME280;46188;52.324;8.032;2022-11-09T18:21:13;99987.41;;;11.80;87.89
60345;BME280;46188;52.324;8.032;2022-11-09T18:23:40;99984.75;;;11.74;88.58
60345;BME280;46188;52.324;8.032;2022-11-09T18:26:05;99989.16;;;11.72;88.91
60345;BME280;46188;52.324;8.032;2022-11-09T18:28:32;99990.91;;;11.77;88.28
60345;BME280;46188;52.324;8.032;2022-11-09T18:30:59;99997.06;;;11.73;88.45
60345;BME280;46188;52.324;8.032;2022-11-09T18:33:26;99993.53;;;11.71;88.84
60345;BME280;46188;52.324;8.032;2022-11-09T18:35:56;99992.69;;;11.64;89.46
60345;BME280;46188;52.324;8.032;2022-11-09T18:38:22;99990.03;;;11.66;89.96
60345;BME280;46188;52.324;8.032;2022-11-09T18:41:04;99997.97;;;11.66;90.07
60345;BME280;46188;52.324;8.032;2022-11-09T18:43:30;100004.13;;;11.62;90.10
60345;BME280;46188;52.324;8.032;2022-11-09T18:45:58;100006.78;;;11.63;89.94
60345;BME280;46188;52.324;8.032;2022-11-09T18:48:24;100011.16;;;11.66;90.37
60345;BME280;46188;52.324;8.032;2022-11-09T18:50:52;100016.44;;;11.60;90.60
60345;BME280;46188;52.324;8.032;2022-11-09T18:53:19;100017.31;;;11.54;91.57
60345;BME280;46188;52.324;8.032;2022-11-09T18:55:44;100011.16;;;11.60;90.86
60345;BME280;46188;52.324;8.032;2022-11-09T18:58:10;100019.09;;;11.57;91.58
60345;BME280;46188;52.324;8.032;2022-11-09T19:00:35;100021.75;;;11.54;91.71
60345;BME280;46188;52.324;8.032;2022-11-09T19:03:01;100034.03;;;11.55;91.91
60345;BME280;46188;52.324;8.032;2022-11-09T19:05:27;100034.03;;;11.61;91.41
60345;BME280;46188;52.324;8.032;2022-11-09T19:07:52;100050.75;;;11.58;91.91
60345;BME280;46188;52.324;8.032;2022-11-09T19:10:18;100050.75;;;11.58;91.87
60345;BME280;46188;52.324;8.032;2022-11-09T19:12:44;100053.41;;;11.54;92.30
60345;BME280;46188;52.324;8.032;2022-11-09T19:15:10;100063.06;;;11.52;92.65
60345;BME280;46188;52.324;8.032;2022-11-09T19:17:36;100070.13;;;11.51;92.46
60345;BME280;46188;52.324;8.032;2022-11-09T19:20:02;100067.50;;;11.56;92.90
60345;BME280;46188;52.324;8.032;2022-11-09T19:22:28;100070.13;;;11.57;92.38
60345;BME280;46188;52.324;8.032;2022-11-09T19:24:53;100083.31;;;11.56;93.16
60345;BME280;46188;52.324;8.032;2022-11-09T19:27:19;100079.78;;;11.58;92.71
60345;BME280;46188;52.324;8.032;2022-11-09T19:29:44;100086.84;;;11.61;93.02
60345;BME280;46188;52.324;8.032;2022-11-09T19:32:11;100088.63;;;11.60;93.07
60345;BME280;46188;52.324;8.032;2022-11-09T19:34:36;100100.06;;;11.64;92.97
60345;BME280;46188;52.324;8.032;2022-11-09T19:37:02;100090.38;;;11.66;93.28
60345;BME280;46188;52.324;8.032;2022-11-09T19:39:27;100094.78;;;11.66;93.14
60345;BME280;46188;52.324;8.032;2022-11-09T19:41:52;100096.53;;;11.71;92.85
60345;BME280;46188;52.324;8.032;2022-11-09T19:44:18;100108.88;;;11.77;92.77
60345;BME280;46188;52.324;8.032;2022-11-09T19:46:43;100107.97;;;11.73;93.07
60345;BME280;46188;52.324;8.032;2022-11-09T19:49:09;100121.16;;;11.76;93.12
60345;BME280;46188;52.324;8.032;2022-11-09T19:51:35;100109.72;;;11.76;93.86
60345;BME280;46188;52.324;8.032;2022-11-09T19:54:02;100113.25;;;11.73;94.08
60345;BME280;46188;52.324;8.032;2022-11-09T19:56:29;100123.81;;;11.73;94.04
60345;BME280;46188;52.324;8.032;2022-11-09T19:58:58;100115.00;;;11.76;93.78
60345;BME280;46188;52.324;8.032;2022-11-09T20:01:24;100132.63;;;11.74;94.31
60345;BME280;46188;52.324;8.032;2022-11-09T20:03:52;100125.59;;;11.77;94.06
60345;BME280;46188;52.324;8.032;2022-11-09T20:06:19;100139.66;;;11.73;94.55
60345;BME280;46188;52.324;8.032;2022-11-09T20:08:44;100138.78;;;11.73;95.07
60345;BME280;46188;52.324;8.032;2022-11-09T20:11:13;100138.78;;;11.74;95.12
60345;BME280;46188;52.324;8.032;2022-11-09T20:13:59;100159.88;;;11.68;95.38
60345;BME280;46188;52.324;8.032;2022-11-09T20:16:24;100151.97;;;11.70;95.57
60345;BME280;46188;52.324;8.032;2022-11-09T20:18:50;100143.19;;;11.69;95.51
60345;BME280;46188;52.324;8.032;2022-11-09T20:21:16;100158.13;;;11.75;95.67
60345;BME280;46188;52.324;8.032;2022-11-09T20:23:41;100171.34;;;11.67;95.81
60345;BME280;46188;52.324;8.032;2022-11-09T20:26:09;100162.53;;;11.68;95.52
60345;BME280;46188;52.324;8.032;2022-11-09T20:28:34;100168.66;;;11.56;96.91
60345;BME280;46188;52.324;8.032;2022-11-09T20:31:00;100180.13;;;11.60;96.74
60345;BME280;46188;52.324;8.032;2022-11-09T20:33:26;100180.13;;;11.57;96.73
60345;BME280;46188;52.324;8.032;2022-11-09T20:35:55;100181.00;;;11.53;97.27
60345;BME280;46188;52.324;8.032;2022-11-09T20:38:21;100191.56;;;11.54;97.34
60345;BME280;46188;52.324;8.032;2022-11-09T20:41:01;100195.09;;;11.59;97.31
60345;BME280;46188;52.324;8.032;2022-11-09T20:43:28;100195.06;;;11.55;97.35
60345;BME280;46188;52.324;8.032;2022-11-09T20:45:53;100197.69;;;11.52;97.68
60345;BME280;46188;52.324;8.032;2022-11-09T20:48:20;100206.50;;;11.51;97.44
60345;BME280;46188;52.324;8.032;2022-11-09T20:50:45;100197.63;;;11.33;99.18
60345;BME280;46188;52.324;8.032;2022-11-09T20:53:11;100204.63;;;11.22;99.66
60345;BME280;46188;52.324;8.032;2022-11-09T20:55:40;100209.91;;;11.16;100.00
60345;BME280;46188;52.324;8.032;2022-11-09T20:58:10;100210.75;;;11.10;100.00
60345;BME280;46188;52.324;8.032;2022-11-09T21:00:36;100203.75;;;11.12;100.00
60345;BME280;46188;52.324;8.032;2022-11-09T21:03:03;100211.59;;;11.01;100.00
60345;BME280;46188;52.324;8.032;2022-11-09T21:05:29;100215.97;;;10.98;100.00
60345;BME280;46188;52.324;8.032;2022-11-09T21:07:54;100219.47;;;10.95;100.00
60345;BME280;46188;52.324;8.032;2022-11-09T21:10:19;100220.31;;;10.89;100.00
60345;BME280;46188;52.324;8.032;2022-11-09T21:12:45;100231.72;;;10.88;100.00
60345;BME280;46188;52.324;8.032;2022-11-09T21:15:10;100229.97;;;10.84;100.00
60345;BME280;46188;52.324;8.032;2022-11-09T21:17:38;100233.47;;;10.85;100.00
60345;BME280;46188;52.324;8.032;2022-11-09T21:20:04;100236.97;;;10.78;100.00
60345;BME280;46188;52.324;8.032;2022-11-09T21:22:29;100242.22;;;10.75;100.00
60345;BME280;46188;52.324;8.032;2022-11-09T21:25:30;100236.00;;;10.68;100.00
60345;BME280;46188;52.324;8.032;2022-11-09T21:28:14;100247.38;;;10.64;100.00
60345;BME280;46188;52.324;8.032;2022-11-09T21:31:00;100239.50;;;10.65;100.00
60345;BME280;46188;52.324;8.032;2022-11-09T21:33:25;100247.38;;;10.64;100.00
60345;BME280;46188;52.324;8.032;2022-11-09T21:35:51;100257.91;;;10.61;100.00
60345;BME280;46188;52.324;8.032;2022-11-09T21:38:16;100260.50;;;10.53;100.00
60345;BME280;46188;52.324;8.032;2022-11-09T21:40:42;100254.31;;;10.48;100.00
60345;BME280;46188;52.324;8.032;2022-11-09T21:43:08;100265.72;;;10.48;100.00
60345;BME280;46188;52.324;8.032;2022-11-09T21:45:33;100271.03;;;10.51;100.00
60345;BME280;46188;52.324;8.032;2022-11-09T21:47:58;100267.50;;;10.49;100.00
60345;BME280;46188;52.324;8.032;2022-11-09T21:50:24;100262.19;;;10.43;100.00
60345;BME280;46188;52.324;8.032;2022-11-09T21:52:49;100274.50;;;10.44;100.00
60345;BME280;46188;52.324;8.032;2022-11-09T21:55:15;100270.94;;;10.42;100.00
60345;BME280;46188;52.324;8.032;2022-11-09T21:57:40;100269.19;;;10.41;100.00
60345;BME280;46188;52.324;8.032;2022-11-09T22:00:07;100277.03;;;10.33;100.00
60345;BME280;46188;52.324;8.032;2022-11-09T22:02:33;100284.94;;;10.33;100.00
60345;BME280;46188;52.324;8.032;2022-11-09T22:04:58;100284.94;;;10.33;100.00
60345;BME280;46188;52.324;8.032;2022-11-09T22:07:24;100291.84;;;10.25;100.00
60345;BME280;46188;52.324;8.032;2022-11-09T22:09:49;100290.94;;;10.22;100.00
60345;BME280;46188;52.324;8.032;2022-11-09T22:12:15;100299.78;;;10.27;100.00
60345;BME280;46188;52.324;8.032;2022-11-09T22:14:59;100309.47;;;10.29;100.00
60345;BME280;46188;52.324;8.032;2022-11-09T22:17:44;100300.56;;;10.18;100.00
60345;BME280;46188;52.324;8.032;2022-11-09T22:20:09;100310.19;;;10.18;100.00
60345;BME280;46188;52.324;8.032;2022-11-09T22:22:55;100309.25;;;10.11;100.00
60345;BME280;46188;52.324;8.032;2022-11-09T22:25:20;100313.72;;;10.16;100.00
60345;BME280;46188;52.324;8.032;2022-11-09T22:27:46;100314.56;;;10.14;100.00
60345;BME280;46188;52.324;8.032;2022-11-09T22:30:11;100322.47;;;10.15;100.00
60345;BME280;46188;52.324;8.032;2022-11-09T22:32:37;100325.97;;;10.11;100.00
60345;BME280;46188;52.324;8.032;2022-11-09T22:35:02;100323.25;;;10.04;100.00
60345;BME280;46188;52.324;8.032;2022-11-09T22:37:28;100328.47;;;10.01;100.00
60345;BME280;46188;52.324;8.032;2022-11-09T22:39:53;100318.91;;;10.09;100.00
60345;BME280;46188;52.324;8.032;2022-11-09T22:42:19;100335.53;;;10.02;100.00
60345;BME280;46188;52.324;8.032;2022-11-09T22:44:44;100330.25;;;10.02;100.00
60345;BME280;46188;52.324;8.032;2022-11-09T22:47:10;100345.31;;;10.15;100.00
60345;BME280;46188;52.324;8.032;2022-11-09T22:49:35;100340.91;;;10.14;100.00
60345;BME280;46188;52.324;8.032;2022-11-09T22:52:01;100341.78;;;10.11;100.00
60345;BME280;46188;52.324;8.032;2022-11-09T22:54:27;100349.69;;;10.11;100.00
60345;BME280;46188;52.324;8.032;2022-11-09T22:56:52;100357.47;;;10.02;100.00
60345;BME280;46188;52.324;8.032;2022-11-09T22:59:18;100349.47;;;9.96;100.00
60345;BME280;46188;52.324;8.032;2022-11-09T23:01:43;100360.06;;;10.01;100.00
60345;BME280;46188;52.324;8.032;2022-11-09T23:04:09;100366.13;;;9.92;100.00
60345;BME280;46188;52.324;8.032;2022-11-09T23:06:34;100365.28;;;9.96;100.00
60345;BME280;46188;52.324;8.032;2022-11-09T23:09:00;100376.72;;;9.96;100.00
60345;BME280;46188;52.324;8.032;2022-11-09T23:11:25;100382.88;;;9.97;100.00
60345;BME280;46188;52.324;8.032;2022-11-09T23:13:52;100378.44;;;9.94;100.00
60345;BME280;46188;52.324;8.032;2022-11-09T23:16:19;100386.31;;;9.94;100.00
60345;BME280;46188;52.324;8.032;2022-11-09T23:18:45;100393.41;;;9.97;100.00
60345;BME280;46188;52.324;8.032;2022-11-09T23:21:28;100378.44;;;9.94;100.00
60345;BME280;46188;52.324;8.032;2022-11-09T23:23:56;100393.41;;;9.98;100.00
60345;BME280;46188;52.324;8.032;2022-11-09T23:26:22;100386.44;;;10.04;100.00
60345;BME280;46188;52.324;8.032;2022-11-09T23:28:48;100397.78;;;9.96;100.00
60345;BME280;46188;52.324;8.032;2022-11-09T23:31:16;100407.44;;;9.97;100.00
60345;BME280;46188;52.324;8.032;2022-11-09T23:33:45;100411.84;;;9.98;100.00
60345;BME280;46188;52.324;8.032;2022-11-09T23:36:11;100400.41;;;9.95;100.00
60345;BME280;46188;52.324;8.032;2022-11-09T23:38:38;100401.19;;;9.89;100.00
60345;BME280;46188;52.324;8.032;2022-11-09T23:41:06;100404.75;;;9.93;100.00
60345;BME280;46188;52.324;8.032;2022-11-09T23:43:31;100414.31;;;9.86;100.00
60345;BME280;46188;52.324;8.032;2022-11-09T23:46:02;100422.16;;;9.80;100.00
60345;BME280;46188;52.324;8.032;2022-11-09T23:48:28;100424.75;;;9.78;100.00
60345;BME280;46188;52.324;8.032;2022-11-09T23:50:56;100436.09;;;9.74;100.00
60345;BME280;46188;52.324;8.032;2022-11-09T23:53:22;100437.84;;;9.74;100.00
60345;BME280;46188;52.324;8.032;2022-11-09T23:55:47;100438.69;;;9.70;100.00
60345;BME280;46188;52.324;8.032;2022-11-09T23:58:13;100443.97;;;9.70;100.00
